Great Neck Estates, New York
Current Conditions -  °F | °C
As of 3:51 PM on Friday 31 Oct 2014 (Local Time) from KLGA Reporting Station
Overcast Overcast  
Wind Chill: 55°   Ceiling: 4900
Heat Index: 55°   Visibility: 10mi
Dew Point: 37°   Wind: 15mph
Humidity: 51%   Direction: 70°ENE
Pressure: 29.9"   Gusts: NA
Location:  40.786°N, 73.7291°W
Report Text: KLGA 311951Z 07013KT 10SM OVC049 13/03 A2990 RMK AO2 SLP124 T01280028
Loading
Personal Weather Stations






























Interactive Weather Map
Tropical Storm Tracking
New forecast layout! Learn more

10-Day Weather Forecast

Advertisements
Track Severe Weather on mobile